Tyrone, Colorado
Current Conditions -  °F | °C
As of 8:54 AM on Friday 19 Dec 2014 (Local Time) from KTAD Reporting Station
Clear Clear  
Wind Chill: -5°   Ceiling: Unl
Heat Index: -1°   Visibility: 10mi
Dew Point: -6°   Wind: 9mph
Humidity: 69%   Direction: 260°W
Pressure: 30.11"   Gusts: NA
Location:  37.5307°N, 104.063°W
Report Text: KTAD 191554Z AUTO 26008KT 10SM CLR M01/M06 A3011 RMK AO2 SLP202 T10061056
Loading
Personal Weather Stations






























Interactive Weather Map New forecast layout! Learn more

10-Day Weather Forecast

Advertisements
Track Severe Weather on mobile